Time;durP1;ratioP1;P1;durP2;ratioP2;P2;SDS_P1;SDS_P2;PMS_P1;PMS_P2;Temp;Humidity;BMP_temperature;BMP_pressure;BME280_temperature;BME280_humidity;BME280_pressure;Samples;Min_cycle;Max_cycle;Signal;HPM_P1;HPM_P2
2023/05/01 00:01:48;;;;;;;8.45;3.47;;;9.80;99.90;;;;;;5096122;28;20590;-56
2023/05/01 00:04:13;;;;;;;4.82;3.83;;;9.80;99.90;;;;;;5092717;28;20039;-58
2023/05/01 00:06:39;;;;;;;7.33;3.60;;;9.70;99.90;;;;;;5097942;28;20271;-54
2023/05/01 00:09:06;;;;;;;6.83;3.10;;;9.70;99.90;;;;;;5108380;28;20039;-56
2023/05/01 00:11:31;;;;;;;8.43;4.22;;;9.70;99.90;;;;;;5102588;28;20282;-56
2023/05/01 00:13:57;;;;;;;4.70;2.93;;;9.60;99.90;;;;;;5091077;28;20051;-55
2023/05/01 00:16:22;;;;;;;3.40;2.97;;;9.60;99.90;;;;;;5106375;27;20064;-57
2023/05/01 00:18:48;;;;;;;7.53;4.37;;;9.60;99.90;;;;;;5108077;28;20426;-56
2023/05/01 00:21:13;;;;;;;8.57;3.93;;;9.50;99.90;;;;;;5105688;28;20079;-55
2023/05/01 00:23:39;;;;;;;5.50;3.60;;;9.50;99.90;;;;;;5103828;28;20023;-57
2023/05/01 00:26:05;;;;;;;6.60;3.43;;;9.40;99.90;;;;;;5091855;28;20868;-56
2023/05/01 00:28:31;;;;;;;9.53;4.47;;;9.30;99.90;;;;;;5096323;28;20032;-57
2023/05/01 00:30:57;;;;;;;;;;;9.30;99.90;;;;;;5106485;28;20778;-54
2023/05/01 00:33:22;;;;;;;5.82;3.58;;;9.30;99.90;;;;;;5096891;28;19923;-57
2023/05/01 00:35:48;;;;;;;7.57;3.37;;;9.20;99.90;;;;;;5102859;28;20027;-57
2023/05/01 00:38:13;;;;;;;4.33;3.40;;;9.20;99.90;;;;;;5091975;28;20400;-57
2023/05/01 00:40:46;;;;;;;5.67;3.27;;;9.20;99.90;;;;;;5098783;28;20176;-57
2023/05/01 00:43:12;;;;;;;3.60;3.30;;;9.10;99.90;;;;;;5108581;28;20035;-56
2023/05/01 00:45:41;;;;;;;4.28;3.17;;;9.10;99.90;;;;;;5103343;28;20028;-55
2023/05/01 00:48:08;;;;;;;6.28;3.30;;;9.10;99.90;;;;;;5103966;28;20050;-57
2023/05/01 00:50:34;;;;;;;7.72;4.63;;;9.00;99.90;;;;;;5098979;28;20024;-57
2023/05/01 00:52:59;;;;;;;7.47;3.63;;;9.00;99.90;;;;;;5107010;28;20041;-55
2023/05/01 00:55:25;;;;;;;6.83;4.43;;;9.00;99.90;;;;;;5097427;28;20032;-56
2023/05/01 00:57:53;;;;;;;11.85;4.28;;;9.00;99.90;;;;;;5091061;28;20852;-57
2023/05/01 01:00:21;;;;;;;11.73;4.32;;;9.00;99.90;;;;;;5099196;28;20036;-57
2023/05/01 01:02:47;;;;;;;8.82;4.28;;;9.10;99.90;;;;;;5096517;28;20092;-58
2023/05/01 01:05:13;;;;;;;7.45;4.55;;;9.10;99.90;;;;;;5090723;28;20040;-54
2023/05/01 01:08:17;;;;;;;10.35;4.20;;;9.10;99.90;;;;;;5090241;28;20469;-56
2023/05/01 01:10:53;;;;;;;6.68;4.40;;;9.10;99.90;;;;;;5106437;28;20046;-54
2023/05/01 01:13:45;;;;;;;4.55;3.88;;;9.10;99.90;;;;;;5100281;28;20404;-55
2023/05/01 01:16:22;;;;;;;8.48;4.65;;;9.10;99.90;;;;;;5106860;28;20047;-56
2023/05/01 01:19:04;;;;;;;10.57;4.78;;;9.10;99.90;;;;;;5089019;28;20194;-57
2023/05/01 01:21:43;;;;;;;10.27;4.03;;;9.10;99.90;;;;;;5105739;28;20043;-57
2023/05/01 01:24:31;;;;;;;9.90;4.68;;;9.10;99.90;;;;;;5092687;28;20404;-56
2023/05/01 01:27:40;;;;;;;11.23;4.18;;;9.10;99.90;;;;;;5108166;28;20504;-57
2023/05/01 01:30:57;;;;;;;6.85;4.30;;;9.10;99.90;;;;;;5045513;28;20037;-56
2023/05/01 01:34:03;;;;;;;6.57;4.32;;;9.00;99.90;;;;;;5029516;28;20048;-57
2023/05/01 01:37:06;;;;;;;10.73;4.40;;;8.90;99.90;;;;;;5046121;28;20045;-57
2023/05/01 01:39:38;;;;;;;7.00;4.93;;;9.00;99.90;;;;;;5042893;28;20414;-58
2023/05/01 01:42:09;;;;;;;12.68;5.03;;;8.90;99.90;;;;;;5029192;28;20163;-54
2023/05/01 01:44:46;;;;;;;8.27;5.22;;;9.00;99.90;;;;;;5045665;28;20120;-57
2023/05/01 01:47:14;;;;;;;8.15;5.18;;;9.00;99.90;;;;;;5045761;28;20049;-57
2023/05/01 01:49:45;;;;;;;10.05;5.80;;;9.00;99.90;;;;;;5044474;28;20126;-58
2023/05/01 01:52:13;;;;;;;5.88;4.78;;;9.00;99.90;;;;;;5044753;28;20057;-56
2023/05/01 01:54:43;;;;;;;7.07;5.13;;;8.90;99.90;;;;;;5045214;28;20037;-54
2023/05/01 01:57:12;;;;;;;9.05;5.35;;;8.90;99.90;;;;;;5044814;28;20457;-57
2023/05/01 01:59:40;;;;;;;11.82;5.10;;;8.90;99.90;;;;;;5029757;28;20045;-57
2023/05/01 02:02:07;;;;;;;8.88;5.05;;;8.90;99.90;;;;;;5109306;28;20046;-55
2023/05/01 02:04:35;;;;;;;10.65;5.47;;;8.90;99.90;;;;;;5108478;28;20043;-56
2023/05/01 02:07:01;;;;;;;6.65;4.93;;;8.80;99.90;;;;;;5093556;28;20525;-54
2023/05/01 02:09:28;;;;;;;12.35;5.68;;;8.80;99.90;;;;;;5100161;28;20039;-57
2023/05/01 02:11:55;;;;;;;7.38;4.80;;;8.80;99.90;;;;;;5093271;28;20405;-56
2023/05/01 02:14:22;;;;;;;12.95;4.30;;;8.80;99.90;;;;;;5110797;28;20048;-56
2023/05/01 02:16:49;;;;;;;7.25;5.05;;;8.70;99.90;;;;;;5109384;28;20039;-55
2023/05/01 02:19:16;;;;;;;9.95;5.10;;;8.70;99.90;;;;;;5095821;28;20036;-57
2023/05/01 02:21:44;;;;;;;6.85;5.30;;;8.70;99.90;;;;;;5095923;28;20039;-56
2023/05/01 02:24:11;;;;;;;6.90;5.90;;;8.70;99.90;;;;;;5093816;28;20032;-57
2023/05/01 02:26:41;;;;;;;9.90;5.03;;;8.70;99.90;;;;;;5103332;28;20157;-55
2023/05/01 02:29:07;;;;;;;19.50;5.53;;;8.60;99.90;;;;;;5092626;28;20327;-56
2023/05/01 02:31:33;;;;;;;7.83;4.70;;;8.60;99.90;;;;;;5100828;28;20570;-56
2023/05/01 02:33:58;;;;;;;5.35;4.80;;;8.60;99.90;;;;;;5103218;28;20368;-57
2023/05/01 02:36:24;;;;;;;7.30;4.83;;;8.60;99.90;;;;;;5104185;27;20063;-58
2023/05/01 02:38:50;;;;;;;8.97;4.83;;;8.50;99.90;;;;;;5092779;28;20059;-57
2023/05/01 02:41:20;;;;;;;13.52;4.90;;;8.50;99.90;;;;;;5097695;28;20039;-57
2023/05/01 02:43:54;;;;;;;9.52;5.60;;;8.50;99.90;;;;;;5097009;28;20444;-55
2023/05/01 02:46:23;;;;;;;7.43;5.57;;;8.50;99.90;;;;;;5097294;28;20039;-56
2023/05/01 02:48:49;;;;;;;6.90;5.03;;;8.50;99.90;;;;;;5096791;28;20106;-56
2023/05/01 02:51:15;;;;;;;7.90;5.45;;;8.40;99.90;;;;;;5093116;28;20036;-57
2023/05/01 02:53:41;;;;;;;8.52;5.40;;;8.40;99.90;;;;;;5110757;28;20050;-58
2023/05/01 02:56:07;;;;;;;9.57;5.15;;;8.40;99.90;;;;;;5107759;28;20044;-55
2023/05/01 02:58:33;;;;;;;7.03;4.57;;;8.40;99.90;;;;;;5104141;28;20050;-56
2023/05/01 03:00:59;;;;;;;7.85;5.10;;;8.30;99.90;;;;;;5100983;28;20067;-57
2023/05/01 03:03:26;;;;;;;8.98;4.90;;;8.30;99.90;;;;;;5093233;28;20111;-57
2023/05/01 03:05:52;;;;;;;12.30;5.05;;;8.30;99.90;;;;;;5091980;28;20574;-56
2023/05/01 03:08:17;;;;;;;7.23;4.60;;;8.30;99.90;;;;;;5107806;28;20369;-57
2023/05/01 03:10:43;;;;;;;11.37;4.97;;;8.20;99.90;;;;;;5108746;28;20285;-56
2023/05/01 03:13:10;;;;;;;8.23;5.13;;;8.20;99.90;;;;;;5108606;28;20039;-55
2023/05/01 03:15:36;;;;;;;13.88;5.20;;;8.10;99.90;;;;;;5101906;28;20060;-56
2023/05/01 03:18:03;;;;;;;10.23;4.70;;;8.10;99.90;;;;;;5093355;28;20094;-55
2023/05/01 03:20:28;;;;;;;;;;;8.10;99.90;;;;;;5090215;28;20054;-56
2023/05/01 03:22:55;;;;;;;8.20;5.57;;;8.00;99.90;;;;;;5104221;28;20002;-55
2023/05/01 03:25:21;;;;;;;6.93;4.43;;;8.00;99.90;;;;;;5110499;28;20081;-58
2023/05/01 03:27:47;;;;;;;9.03;5.63;;;7.90;99.90;;;;;;5097471;28;20036;-54
2023/05/01 03:30:13;;;;;;;10.27;4.35;;;7.90;99.90;;;;;;5101557;28;20038;-57
2023/05/01 03:32:39;;;;;;;11.40;5.17;;;7.80;99.90;;;;;;5105087;28;20162;-56
2023/05/01 03:35:05;;;;;;;6.15;4.82;;;7.70;99.90;;;;;;5091544;28;20035;-57
2023/05/01 03:37:30;;;;;;;14.20;6.93;;;7.70;99.90;;;;;;5099340;28;20027;-57
2023/05/01 03:39:56;;;;;;;9.15;5.10;;;7.60;99.90;;;;;;5107684;28;20039;-55
2023/05/01 03:42:22;;;;;;;8.53;5.03;;;7.60;99.90;;;;;;5103675;28;20497;-55
2023/05/01 03:44:48;;;;;;;5.25;4.72;;;7.50;99.90;;;;;;5091636;28;20044;-56
2023/05/01 03:47:13;;;;;;;6.35;4.43;;;7.50;99.90;;;;;;5100316;28;20059;-55
2023/05/01 03:49:42;;;;;;;5.38;4.90;;;7.40;99.90;;;;;;5095470;28;20039;-57
2023/05/01 03:52:08;;;;;;;8.82;5.63;;;7.30;99.90;;;;;;5097740;28;20109;-57
2023/05/01 03:54:34;;;;;;;6.97;5.43;;;7.30;99.90;;;;;;5108006;28;20505;-56
2023/05/01 03:57:00;;;;;;;9.07;5.53;;;7.20;99.90;;;;;;5107477;28;20050;-56
2023/05/01 03:59:25;;;;;;;7.00;4.93;;;7.20;99.90;;;;;;5091238;28;20040;-56
2023/05/01 04:01:51;;;;;;;8.77;5.65;;;7.20;99.90;;;;;;5091197;28;20118;-55
2023/05/01 04:04:17;;;;;;;7.65;5.80;;;7.20;99.90;;;;;;5108885;28;20109;-56
2023/05/01 04:06:43;;;;;;;10.80;6.57;;;7.10;99.90;;;;;;5107828;28;20040;-56
2023/05/01 04:09:09;;;;;;;7.53;5.72;;;7.10;99.90;;;;;;5091788;28;20043;-56
2023/05/01 04:11:34;;;;;;;12.57;7.33;;;7.20;99.90;;;;;;5093450;28;20036;-57
2023/05/01 04:14:00;;;;;;;8.33;6.20;;;7.20;99.90;;;;;;5094928;28;20282;-55
2023/05/01 04:16:26;;;;;;;7.67;6.07;;;7.20;99.90;;;;;;5104671;28;20112;-56
2023/05/01 04:18:51;;;;;;;15.52;6.75;;;7.20;99.90;;;;;;5104725;28;20036;-56
2023/05/01 04:21:17;;;;;;;10.48;6.63;;;7.20;99.90;;;;;;5108712;28;20039;-56
2023/05/01 04:23:43;;;;;;;8.90;6.50;;;7.30;99.90;;;;;;5104848;28;20043;-58
2023/05/01 04:26:09;;;;;;;14.30;7.95;;;7.30;99.90;;;;;;5095585;28;20123;-57
2023/05/01 04:28:34;;;;;;;15.80;7.82;;;7.40;99.90;;;;;;5099773;28;20031;-56
2023/05/01 04:31:00;;;;;;;12.57;7.47;;;7.40;99.90;;;;;;5105243;28;20043;-57
2023/05/01 04:33:27;;;;;;;11.85;6.90;;;7.50;99.90;;;;;;5094787;28;20035;-57
2023/05/01 04:35:53;;;;;;;8.18;6.93;;;7.50;99.90;;;;;;5102342;28;20031;-56
2023/05/01 04:38:18;;;;;;;11.38;6.47;;;7.60;99.90;;;;;;5099686;28;20028;-56
2023/05/01 04:40:44;;;;;;;11.35;7.53;;;7.60;99.90;;;;;;5089935;28;20024;-57
2023/05/01 04:43:10;;;;;;;13.65;6.78;;;7.70;99.90;;;;;;5094873;28;20525;-56
2023/05/01 04:45:37;;;;;;;13.10;7.80;;;7.70;99.90;;;;;;5107326;28;20028;-56
2023/05/01 04:48:03;;;;;;;9.30;6.50;;;7.80;99.90;;;;;;5102362;28;20576;-56
2023/05/01 04:50:28;;;;;;;8.95;5.78;;;7.80;99.90;;;;;;5089833;28;20486;-56
2023/05/01 04:52:54;;;;;;;11.63;7.87;;;7.90;99.90;;;;;;5091377;28;20484;-57
2023/05/01 04:55:20;;;;;;;10.40;6.60;;;7.90;99.90;;;;;;5090174;28;20113;-55
2023/05/01 04:57:45;;;;;;;9.45;6.22;;;7.90;99.90;;;;;;5103177;28;20039;-57
2023/05/01 05:00:11;;;;;;;10.60;6.65;;;8.00;99.90;;;;;;5090421;28;20043;-57
2023/05/01 05:02:37;;;;;;;14.73;6.97;;;8.00;99.90;;;;;;5108181;28;20031;-57
2023/05/01 05:05:03;;;;;;;13.70;6.32;;;8.00;99.90;;;;;;5101830;28;20049;-57
2023/05/01 05:07:29;;;;;;;18.17;6.57;;;8.10;99.90;;;;;;5106483;28;20078;-57
2023/05/01 05:09:54;;;;;;;12.65;6.78;;;8.10;99.90;;;;;;5093327;28;20173;-55
2023/05/01 05:12:20;;;;;;;7.75;5.80;;;8.20;99.90;;;;;;5090013;28;20032;-57
2023/05/01 05:14:46;;;;;;;12.18;5.95;;;8.20;99.90;;;;;;5101606;28;20102;-57
2023/05/01 05:17:12;;;;;;;9.05;6.43;;;8.20;99.90;;;;;;5104868;28;20032;-54
2023/05/01 05:19:38;;;;;;;9.97;6.93;;;8.30;99.90;;;;;;5099772;28;20818;-56
2023/05/01 05:22:04;;;;;;;14.67;6.40;;;8.30;99.90;;;;;;5108005;28;20350;-56
2023/05/01 05:24:30;;;;;;;10.63;6.75;;;8.40;99.90;;;;;;5104188;28;20071;-55
2023/05/01 05:26:56;;;;;;;10.82;6.97;;;8.40;99.90;;;;;;5107685;28;20443;-57
2023/05/01 05:29:21;;;;;;;10.88;6.40;;;8.50;99.90;;;;;;5098971;28;20057;-57
2023/05/01 05:31:47;;;;;;;22.03;7.30;;;8.50;99.90;;;;;;5089325;28;20050;-56
2023/05/01 05:34:13;;;;;;;9.97;6.33;;;8.60;99.90;;;;;;5096305;28;20361;-57
2023/05/01 05:36:38;;;;;;;7.53;6.30;;;8.60;99.90;;;;;;5097805;27;20036;-55
2023/05/01 05:39:04;;;;;;;12.77;6.97;;;8.70;99.90;;;;;;5101401;28;20034;-56
2023/05/01 05:41:30;;;;;;;15.07;7.47;;;8.70;99.90;;;;;;5112572;27;20039;-57
2023/05/01 05:43:55;;;;;;;10.33;7.00;;;8.80;99.90;;;;;;5104361;27;20047;-57
2023/05/01 05:46:21;;;;;;;11.45;6.90;;;8.90;99.90;;;;;;5111648;28;20509;-57
2023/05/01 05:48:47;;;;;;;11.07;6.50;;;9.00;99.90;;;;;;5109826;27;20582;-58
2023/05/01 05:51:12;;;;;;;19.43;6.70;;;9.10;99.90;;;;;;5108694;28;20035;-57
2023/05/01 05:53:38;;;;;;;11.73;6.50;;;9.10;99.90;;;;;;5107247;27;20030;-56
2023/05/01 05:56:03;;;;;;;18.40;6.63;;;9.20;99.90;;;;;;5098738;27;20855;-56
2023/05/01 05:58:29;;;;;;;11.55;6.78;;;9.30;99.90;;;;;;5106012;28;20318;-58
2023/05/01 06:00:55;;;;;;;10.80;5.10;;;9.40;99.90;;;;;;5110618;28;20087;-59
2023/05/01 06:03:21;;;;;;;9.05;5.45;;;9.50;99.90;;;;;;5114023;28;20502;-56
2023/05/01 06:05:47;;;;;;;18.45;5.95;;;9.50;99.90;;;;;;5103431;27;20032;-56
2023/05/01 06:08:13;;;;;;;18.40;5.82;;;9.60;99.90;;;;;;5104876;28;20153;-56
2023/05/01 06:10:41;;;;;;;11.98;5.55;;;9.70;99.90;;;;;;5095310;28;20111;-54
2023/05/01 06:13:07;;;;;;;10.57;5.68;;;9.80;99.90;;;;;;5114298;28;20038;-57
2023/05/01 06:15:33;;;;;;;;;;;9.80;99.90;;;;;;5116692;27;20145;-54
2023/05/01 06:17:59;;;;;;;9.27;6.40;;;9.90;99.90;;;;;;5099132;27;20684;-54
2023/05/01 06:20:25;;;;;;;12.18;6.07;;;9.90;99.90;;;;;;5111187;28;20508;-56
2023/05/01 06:22:50;;;;;;;9.77;6.10;;;10.00;99.90;;;;;;5110150;27;20040;-57
2023/05/01 06:25:16;;;;;;;14.50;7.22;;;10.10;99.90;;;;;;5108835;28;20032;-57
2023/05/01 06:27:42;;;;;;;36.05;6.65;;;10.10;99.90;;;;;;5108141;27;20776;-57
2023/05/01 06:30:08;;;;;;;9.77;6.43;;;10.20;99.90;;;;;;5115071;28;20102;-53
2023/05/01 06:32:34;;;;;;;;;;;10.20;99.90;;;;;;5115851;27;20553;-53
2023/05/01 06:34:59;;;;;;;14.23;6.97;;;10.30;99.90;;;;;;5116269;27;19923;-54
2023/05/01 06:37:25;;;;;;;7.83;5.97;;;10.40;99.90;;;;;;5105679;27;20047;-52
2023/05/01 06:39:50;;;;;;;9.20;5.88;;;10.40;99.90;;;;;;5102718;27;20282;-52
2023/05/01 06:42:16;;;;;;;11.57;5.17;;;10.50;99.90;;;;;;5109618;28;20484;-52
2023/05/01 06:44:42;;;;;;;13.50;5.63;;;10.40;99.90;;;;;;5102538;27;20089;-52
2023/05/01 06:47:08;;;;;;;15.68;7.60;;;10.50;99.90;;;;;;5109408;28;20290;-58
2023/05/01 06:49:34;;;;;;;11.10;7.25;;;10.50;99.90;;;;;;5107338;28;20024;-59
2023/05/01 06:52:00;;;;;;;516.38;57.55;;;10.40;99.90;;;;;;5111288;28;20034;-57
2023/05/01 06:54:26;;;;;;;10.63;7.18;;;10.40;99.90;;;;;;5095168;28;20508;-58
2023/05/01 06:56:54;;;;;;;10.48;6.05;;;10.40;99.90;;;;;;5105692;28;20044;-59
2023/05/01 06:59:19;;;;;;;10.63;7.35;;;10.40;99.90;;;;;;5090618;28;20497;-59
2023/05/01 07:01:45;;;;;;;9.15;5.70;;;10.40;99.90;;;;;;5096583;28;20048;-58
2023/05/01 07:04:11;;;;;;;15.98;5.72;;;10.50;99.90;;;;;;5092332;28;20038;-58
2023/05/01 07:06:36;;;;;;;15.30;6.20;;;10.50;99.90;;;;;;5091838;28;20079;-58
2023/05/01 07:09:04;;;;;;;14.23;7.27;;;10.50;99.90;;;;;;5094642;28;20281;-59
2023/05/01 07:11:29;;;;;;;8.80;6.03;;;10.50;99.90;;;;;;5109163;28;20426;-58
2023/05/01 07:13:55;;;;;;;11.68;6.00;;;10.60;99.90;;;;;;5096932;28;20092;-55
2023/05/01 07:16:20;;;;;;;9.93;6.17;;;10.60;99.90;;;;;;5093916;28;20046;-59
2023/05/01 07:18:46;;;;;;;13.65;5.75;;;10.60;99.90;;;;;;5100591;28;20074;-56
2023/05/01 07:21:12;;;;;;;10.27;6.22;;;10.60;99.90;;;;;;5110371;28;20047;-58
2023/05/01 07:23:38;;;;;;;11.20;6.25;;;10.70;99.90;;;;;;5103431;28;20498;-59
2023/05/01 07:26:04;;;;;;;7.78;5.95;;;10.70;99.90;;;;;;5091371;28;20076;-60
2023/05/01 07:28:30;;;;;;;10.68;5.60;;;10.70;99.90;;;;;;5092871;28;20040;-57
2023/05/01 07:30:55;;;;;;;9.00;6.60;;;10.80;99.90;;;;;;5101108;28;20054;-59
2023/05/01 07:33:23;;;;;;;10.00;5.53;;;10.80;99.90;;;;;;5105677;28;20036;-58
2023/05/01 07:35:49;;;;;;;10.27;6.95;;;10.80;99.90;;;;;;5104651;28;20040;-57
2023/05/01 07:38:15;;;;;;;11.75;6.50;;;10.80;99.90;;;;;;5090966;28;20043;-58
2023/05/01 07:40:41;;;;;;;11.13;6.50;;;10.90;99.90;;;;;;5099781;28;20052;-57
2023/05/01 07:43:09;;;;;;;15.52;6.93;;;10.90;99.90;;;;;;5091327;28;20502;-57
2023/05/01 07:45:36;;;;;;;9.68;6.43;;;10.90;99.90;;;;;;5086826;28;20049;-57
2023/05/01 07:48:02;;;;;;;9.73;6.18;;;11.00;99.90;;;;;;5088221;28;20492;-58
2023/05/01 07:50:27;;;;;;;9.70;6.70;;;11.00;99.90;;;;;;5090899;28;20031;-59
2023/05/01 07:52:53;;;;;;;10.63;6.33;;;11.00;99.90;;;;;;5074322;28;20587;-57
2023/05/01 07:55:21;;;;;;;11.23;7.03;;;11.10;99.90;;;;;;5091651;28;20515;-58
2023/05/01 07:57:47;;;;;;;14.93;7.50;;;11.10;99.90;;;;;;5093819;28;20046;-58
2023/05/01 08:00:13;;;;;;;13.48;7.03;;;11.10;99.90;;;;;;5096816;28;20031;-59
2023/05/01 08:02:39;;;;;;;11.30;7.22;;;11.20;99.90;;;;;;5091307;28;20380;-59
2023/05/01 08:05:05;;;;;;;12.25;6.57;;;11.20;99.90;;;;;;5087643;28;20044;-58
2023/05/01 08:07:31;;;;;;;8.13;6.82;;;11.20;99.90;;;;;;5086865;28;20122;-59
2023/05/01 08:09:57;;;;;;;7.65;6.38;;;11.30;99.90;;;;;;5095946;28;20065;-57
2023/05/01 08:12:22;;;;;;;8.88;5.65;;;11.30;99.90;;;;;;5090764;28;20040;-59
2023/05/01 08:14:48;;;;;;;11.07;6.70;;;11.40;99.90;;;;;;5090426;28;20107;-58
2023/05/01 08:17:14;;;;;;;12.20;6.80;;;11.50;99.90;;;;;;5095314;28;20604;-58
2023/05/01 08:19:39;;;;;;;10.45;6.85;;;11.60;99.90;;;;;;5082555;28;20101;-58
2023/05/01 08:22:05;;;;;;;14.63;7.20;;;11.60;99.90;;;;;;5087968;28;20047;-59
2023/05/01 08:24:30;;;;;;;12.17;6.40;;;11.70;99.90;;;;;;5088283;28;20046;-58
2023/05/01 08:26:57;;;;;;;13.20;6.67;;;11.80;99.90;;;;;;5091627;28;20798;-59
2023/05/01 08:29:22;;;;;;;;;;;11.90;99.90;;;;;;5093335;28;20154;-57
2023/05/01 08:31:48;;;;;;;15.50;6.95;;;12.00;99.90;;;;;;5091948;28;20578;-58
2023/05/01 08:34:14;;;;;;;13.85;7.10;;;12.10;99.90;;;;;;5091349;28;20127;-58
2023/05/01 08:36:39;;;;;;;9.38;5.95;;;12.20;99.90;;;;;;5092797;28;20122;-58
2023/05/01 08:39:05;;;;;;;8.07;5.53;;;12.30;99.90;;;;;;5087199;28;20046;-58
2023/05/01 08:41:31;;;;;;;11.63;6.10;;;12.40;99.90;;;;;;5090919;28;20496;-58
2023/05/01 08:44:00;;;;;;;11.50;6.10;;;12.60;99.90;;;;;;5090278;28;20036;-58
2023/05/01 08:46:47;;;;;;;8.80;6.00;;;12.70;99.90;;;;;;5090316;28;20129;-58
2023/05/01 08:49:15;;;;;;;11.88;6.05;;;12.80;99.90;;;;;;5091303;28;20077;-59
2023/05/01 08:51:45;;;;;;;10.85;6.40;;;12.90;99.90;;;;;;5088827;28;20068;-60
2023/05/01 08:54:11;;;;;;;9.43;6.25;;;13.00;99.90;;;;;;5092156;28;20168;-58
2023/05/01 08:56:38;;;;;;;13.57;6.35;;;13.10;99.90;;;;;;5097404;28;20580;-59
2023/05/01 08:59:04;;;;;;;24.50;6.38;;;13.20;99.90;;;;;;5094414;28;20031;-58
2023/05/01 09:01:32;;;;;;;12.27;6.47;;;13.30;99.90;;;;;;5090926;28;20433;-59
2023/05/01 09:04:02;;;;;;;7.38;6.43;;;13.30;99.90;;;;;;5091605;28;20187;-58
2023/05/01 09:06:28;;;;;;;7.82;5.82;;;13.40;99.90;;;;;;5089956;28;20035;-59
2023/05/01 09:08:54;;;;;;;7.40;5.65;;;13.50;99.90;;;;;;5089102;28;20039;-59
2023/05/01 09:11:24;;;;;;;10.15;5.28;;;13.60;99.90;;;;;;5088527;28;20481;-59
2023/05/01 09:13:51;;;;;;;8.00;5.57;;;13.70;99.90;;;;;;5088847;28;20054;-59
2023/05/01 09:16:17;;;;;;;9.32;5.35;;;13.80;99.90;;;;;;5085095;28;20446;-59
2023/05/01 09:18:44;;;;;;;11.07;5.13;;;13.90;99.90;;;;;;5085352;28;20047;-59
2023/05/01 09:21:11;;;;;;;9.73;5.35;;;14.00;99.90;;;;;;5092106;28;20177;-59
2023/05/01 09:23:36;;;;;;;9.00;4.70;;;14.00;99.90;;;;;;5086172;28;20047;-59
2023/05/01 09:26:06;;;;;;;10.65;6.28;;;14.10;99.90;;;;;;5087012;28;20068;-58
2023/05/01 09:28:42;;;;;;;8.43;5.80;;;14.20;99.90;;;;;;5091559;28;20377;-59
2023/05/01 09:31:28;;;;;;;7.95;5.30;;;14.40;99.90;;;;;;5085670;28;20209;-60
2023/05/01 09:33:56;;;;;;;8.13;5.60;;;14.40;99.90;;;;;;5089025;28;20042;-58
2023/05/01 09:36:23;;;;;;;13.07;5.90;;;14.50;99.90;;;;;;5090679;28;20119;-59
2023/05/01 09:38:49;;;;;;;9.98;5.35;;;14.60;99.90;;;;;;5091433;28;20039;-59
2023/05/01 09:41:15;;;;;;;7.22;5.40;;;14.70;99.90;;;;;;5090181;28;20235;-59
2023/05/01 09:43:47;;;;;;;7.93;5.95;;;14.80;99.90;;;;;;5088337;28;20070;-59
2023/05/01 09:46:13;;;;;;;14.75;6.07;;;14.80;99.90;;;;;;5090808;28;20070;-59
2023/05/01 09:48:39;;;;;;;6.75;4.80;;;14.90;99.90;;;;;;5089110;28;20257;-60
2023/05/01 09:51:21;;;;;;;9.43;6.88;;;15.00;99.90;;;;;;5070468;28;20438;-59
2023/05/01 09:53:46;;;;;;;8.23;5.25;;;15.10;99.90;;;;;;5090359;28;20382;-58
2023/05/01 09:56:13;;;;;;;10.55;5.28;;;15.20;99.90;;;;;;5089662;28;20035;-59
2023/05/01 09:58:39;;;;;;;12.57;5.90;;;15.30;99.90;;;;;;5090382;28;20111;-59
2023/05/01 10:01:05;;;;;;;11.95;5.68;;;15.40;99.90;;;;;;5093841;28;20573;-60
2023/05/01 10:03:32;;;;;;;12.05;6.65;;;15.50;99.90;;;;;;5093907;28;20036;-59
2023/05/01 10:06:00;;;;;;;15.55;6.10;;;15.50;99.90;;;;;;5090162;28;20066;-59
2023/05/01 10:08:26;;;;;;;15.40;6.07;;;15.60;99.90;;;;;;5090493;28;20389;-59
2023/05/01 10:11:04;;;;;;;6.32;5.50;;;15.70;99.90;;;;;;5086778;28;20085;-58
2023/05/01 10:13:30;;;;;;;8.75;6.22;;;15.80;99.90;;;;;;5089921;28;20509;-59
2023/05/01 10:15:56;;;;;;;10.63;5.93;;;15.90;99.90;;;;;;5087550;28;20089;-59
2023/05/01 10:18:22;;;;;;;6.90;5.72;;;16.00;99.90;;;;;;5093859;28;20044;-58
2023/05/01 10:20:48;;;;;;;;;;;16.00;99.90;;;;;;5103131;28;20114;-59
2023/05/01 10:23:13;;;;;;;8.93;5.38;;;16.10;99.90;;;;;;5102154;28;20042;-59
2023/05/01 10:25:41;;;;;;;11.82;4.40;;;16.20;99.90;;;;;;5097364;28;20452;-59
2023/05/01 10:28:08;;;;;;;6.78;4.03;;;16.30;99.90;;;;;;5102150;28;20434;-60
2023/05/01 10:30:35;;;;;;;6.80;4.32;;;16.40;99.90;;;;;;5097259;28;20092;-59
2023/05/01 10:33:01;;;;;;;6.38;3.45;;;16.40;99.90;;;;;;5093589;28;20040;-59
2023/05/01 10:35:30;;;;;;;;;;;16.50;99.90;;;;;;5098276;28;20535;-59
2023/05/01 10:38:05;;;;;;;12.77;3.78;;;16.60;99.60;;;;;;5100241;28;20345;-59
2023/05/01 10:40:46;;;;;;;5.03;3.38;;;16.60;99.60;;;;;;5099707;28;20483;-60
2023/05/01 10:43:31;;;;;;;7.30;3.85;;;16.70;99.50;;;;;;5090925;28;20036;-59
2023/05/01 10:46:09;;;;;;;7.70;3.13;;;16.80;99.90;;;;;;5090342;28;20040;-60
2023/05/01 10:48:38;;;;;;;18.80;3.25;;;16.90;99.10;;;;;;5090519;28;20066;-59
2023/05/01 10:51:20;;;;;;;3.13;1.95;;;17.00;98.90;;;;;;5091401;28;20051;-59
2023/05/01 10:53:47;;;;;;;3.42;1.77;;;17.10;97.20;;;;;;5094014;28;20040;-59
2023/05/01 10:56:32;;;;;;;5.30;2.03;;;17.10;97.20;;;;;;5075700;28;20040;-59
2023/05/01 10:58:59;;;;;;;4.65;1.13;;;17.20;96.10;;;;;;5090150;28;20056;-59
2023/05/01 11:01:43;;;;;;;7.35;1.83;;;17.20;95.70;;;;;;5096201;28;20111;-59
2023/05/01 11:04:18;;;;;;;3.58;2.42;;;17.30;95.10;;;;;;5094665;28;20040;-59
2023/05/01 11:07:10;;;;;;;3.97;1.92;;;17.30;95.80;;;;;;5090806;28;20591;-58
2023/05/01 11:09:53;;;;;;;5.97;2.13;;;17.40;95.90;;;;;;5092979;28;20439;-58
2023/05/01 11:12:44;;;;;;;4.95;2.53;;;17.50;95.90;;;;;;5094662;28;20040;-59
2023/05/01 11:15:11;;;;;;;9.07;1.70;;;17.60;95.90;;;;;;5088010;28;20040;-59
2023/05/01 11:17:42;;;;;;;4.57;2.08;;;17.70;96.50;;;;;;5092538;28;20040;-60
2023/05/01 11:20:23;;;;;;;2.67;1.63;;;17.80;95.20;;;;;;5090392;28;20097;-59
2023/05/01 11:22:53;;;;;;;5.65;2.17;;;17.90;95.20;;;;;;5075668;28;20042;-60
2023/05/01 11:25:20;;;;;;;7.03;2.42;;;18.00;95.10;;;;;;5090556;28;20532;-60
2023/05/01 11:27:51;;;;;;;5.75;3.22;;;18.10;95.40;;;;;;5093768;28;20056;-60
2023/05/01 11:30:17;;;;;;;6.00;1.85;;;18.30;95.90;;;;;;5090043;28;20031;-58
2023/05/01 11:32:44;;;;;;;;;;;18.30;95.40;;;;;;5093443;28;20104;-59
2023/05/01 11:35:20;;;;;;;4.82;1.42;;;18.40;94.60;;;;;;5092812;28;19927;-60
2023/05/01 11:37:47;;;;;;;5.10;1.98;;;18.50;94.80;;;;;;5093694;28;20417;-59
2023/05/01 11:40:27;;;;;;;3.65;1.45;;;18.60;94.80;;;;;;5092418;28;20096;-59
2023/05/01 11:43:06;;;;;;;4.03;1.27;;;18.70;93.30;;;;;;5092359;28;20404;-60
2023/05/01 11:45:33;;;;;;;2.88;1.83;;;18.70;93.70;;;;;;5099667;28;20039;-60
2023/05/01 11:48:01;;;;;;;5.97;1.67;;;18.70;94.10;;;;;;5092258;28;20040;-59
2023/05/01 11:50:36;;;;;;;7.07;1.63;;;18.70;93.50;;;;;;5074170;28;20082;-59
2023/05/01 11:53:17;;;;;;;2.67;0.82;;;18.70;93.60;;;;;;5089629;28;20043;-59
2023/05/01 11:55:43;;;;;;;2.92;1.00;;;18.70;93.00;;;;;;5092986;28;20043;-60
2023/05/01 11:58:10;;;;;;;8.27;2.17;;;18.80;93.80;;;;;;5095744;28;20114;-59
2023/05/01 12:00:40;;;;;;;5.18;2.13;;;18.80;93.20;;;;;;5086509;28;20032;-60
2023/05/01 12:03:09;;;;;;;3.92;1.50;;;18.80;93.00;;;;;;5092606;28;20118;-60
2023/05/01 12:05:41;;;;;;;6.78;2.28;;;18.90;93.10;;;;;;5093211;28;20063;-60
2023/05/01 12:08:17;;;;;;;3.97;1.88;;;19.00;92.70;;;;;;5091723;28;20111;-60
2023/05/01 12:10:46;;;;;;;5.00;2.47;;;19.00;93.20;;;;;;5090200;28;20509;-59
2023/05/01 12:13:13;;;;;;;5.70;2.72;;;19.00;93.60;;;;;;5091817;28;20087;-59
2023/05/01 12:15:42;;;;;;;4.30;1.85;;;19.00;93.30;;;;;;5090702;28;20105;-59
2023/05/01 12:18:08;;;;;;;3.80;2.25;;;19.00;93.30;;;;;;5090024;28;20545;-60
2023/05/01 12:20:35;;;;;;;;;;;19.00;93.20;;;;;;5091427;28;20130;-60
2023/05/01 12:23:03;;;;;;;4.68;2.50;;;19.10;93.00;;;;;;5092668;28;20396;-60
2023/05/01 12:25:30;;;;;;;6.18;2.72;;;19.10;92.80;;;;;;5089945;28;20416;-60
2023/05/01 12:27:56;;;;;;;6.22;2.65;;;19.10;92.50;;;;;;5089038;28;20548;-60
2023/05/01 12:30:25;;;;;;;4.72;2.20;;;19.20;92.40;;;;;;5091098;28;20067;-60
2023/05/01 12:32:51;;;;;;;6.18;1.75;;;19.20;92.50;;;;;;5089867;28;20072;-59
2023/05/01 12:35:17;;;;;;;1.83;0.98;;;19.40;92.40;;;;;;5096438;28;20097;-59
2023/05/01 12:37:43;;;;;;;;;;;19.40;92.30;;;;;;5092421;28;20370;-59
2023/05/01 12:40:13;;;;;;;2.83;0.80;;;19.50;91.70;;;;;;5095097;28;19916;-59
2023/05/01 12:42:40;;;;;;;2.15;0.45;;;19.50;92.00;;;;;;5094126;28;20045;-59
2023/05/01 12:45:07;;;;;;;7.32;0.80;;;19.50;92.00;;;;;;5090636;28;20040;-59
2023/05/01 12:47:36;;;;;;;10.77;1.48;;;19.60;91.70;;;;;;5092361;28;20051;-59
2023/05/01 12:50:03;;;;;;;2.35;0.70;;;19.70;91.20;;;;;;5086079;28;20040;-58
2023/05/01 12:52:28;;;;;;;3.22;0.60;;;19.70;91.20;;;;;;5089851;28;20046;-59
2023/05/01 12:55:04;;;;;;;1.65;0.98;;;19.80;91.20;;;;;;5088821;28;20409;-59
2023/05/01 12:57:30;;;;;;;4.97;1.00;;;19.80;90.30;;;;;;5085710;28;20130;-58